createdAt,value
2023-03-06T00:01:17.779Z,81.28
2023-03-06T00:03:48.563Z,81.68
2023-03-06T00:06:20.970Z,81.40
2023-03-06T00:08:55.668Z,81.27
2023-03-06T00:11:26.015Z,81.35
2023-03-06T00:13:53.854Z,81.34
2023-03-06T00:16:23.163Z,81.41
2023-03-06T00:18:49.611Z,81.28
2023-03-06T00:21:16.526Z,81.33
2023-03-06T00:23:43.233Z,81.06
2023-03-06T00:26:10.610Z,81.25
2023-03-06T00:28:38.725Z,81.01
2023-03-06T00:31:08.554Z,81.11
2023-03-06T00:33:36.064Z,80.99
2023-03-06T00:36:05.611Z,81.07
2023-03-06T00:38:35.485Z,81.41
2023-03-06T00:41:13.201Z,81.13
2023-03-06T00:43:58.202Z,80.99
2023-03-06T00:46:25.197Z,81.40
2023-03-06T00:48:57.300Z,81.51
2023-03-06T00:51:33.746Z,81.56
2023-03-06T00:54:03.656Z,81.48
2023-03-06T00:56:40.572Z,81.71
2023-03-06T00:59:12.529Z,81.62
2023-03-06T01:01:42.877Z,81.64
2023-03-06T01:04:12.041Z,81.74
2023-03-06T01:06:45.294Z,81.71
2023-03-06T01:09:15.859Z,81.74
2023-03-06T01:11:42.704Z,81.95
2023-03-06T01:14:09.811Z,81.99
2023-03-06T01:16:41.896Z,81.98
2023-03-06T01:19:11.186Z,81.97
2023-03-06T01:21:38.095Z,82.15
2023-03-06T01:24:05.157Z,82.22
2023-03-06T01:26:32.142Z,82.32
2023-03-06T01:29:01.715Z,82.65
2023-03-06T01:31:31.001Z,82.48
2023-03-06T01:34:04.696Z,82.61
2023-03-06T01:36:35.652Z,82.63
2023-03-06T01:39:04.701Z,82.50
2023-03-06T01:41:41.695Z,82.60
2023-03-06T01:44:13.943Z,82.93
2023-03-06T01:46:44.150Z,82.67
2023-03-06T01:49:18.117Z,82.69
2023-03-06T01:52:27.369Z,82.66
2023-03-06T01:55:14.026Z,83.19
2023-03-06T01:57:46.825Z,82.87
2023-03-06T02:00:21.510Z,82.98
2023-03-06T02:02:53.846Z,83.23
2023-03-06T02:05:21.460Z,83.34
2023-03-06T02:07:50.100Z,83.50
2023-03-06T02:10:18.729Z,83.66
2023-03-06T02:12:47.394Z,83.75
2023-03-06T02:15:17.435Z,83.70
2023-03-06T02:17:46.236Z,83.80
2023-03-06T02:20:21.112Z,84.30
2023-03-06T02:23:15.552Z,84.20
2023-03-06T02:25:45.607Z,84.22
2023-03-06T02:28:17.689Z,84.22
2023-03-06T02:30:46.500Z,84.24
2023-03-06T02:33:19.048Z,84.19
2023-03-06T02:35:57.820Z,84.38
2023-03-06T02:38:28.714Z,84.28
2023-03-06T02:40:57.968Z,84.25
2023-03-06T02:43:29.286Z,84.37
2023-03-06T02:45:56.107Z,84.22
2023-03-06T02:48:22.888Z,84.42
2023-03-06T02:50:49.853Z,84.43
2023-03-06T02:53:19.094Z,84.31
2023-03-06T02:55:48.993Z,84.30
2023-03-06T02:58:16.896Z,84.28
2023-03-06T03:00:43.619Z,84.34
2023-03-06T03:03:10.269Z,84.32
2023-03-06T03:05:37.182Z,84.49
2023-03-06T03:08:04.612Z,84.71
2023-03-06T03:10:31.307Z,84.67
2023-03-06T03:13:01.014Z,84.73
2023-03-06T03:15:27.873Z,84.73
2023-03-06T03:17:54.618Z,84.94
2023-03-06T03:20:26.810Z,85.05
2023-03-06T03:22:58.092Z,85.35
2023-03-06T03:25:26.360Z,85.12
2023-03-06T03:27:53.408Z,85.25
2023-03-06T03:30:20.480Z,85.26
2023-03-06T03:32:47.244Z,85.36
2023-03-06T03:35:14.338Z,85.14
2023-03-06T03:37:41.371Z,85.39
2023-03-06T03:40:11.691Z,85.46
2023-03-06T03:42:40.602Z,85.60
2023-03-06T03:45:07.950Z,85.41
2023-03-06T03:47:34.953Z,85.22
2023-03-06T03:50:01.649Z,85.39
2023-03-06T03:52:31.102Z,85.37
2023-03-06T03:54:58.199Z,85.46
2023-03-06T03:57:25.187Z,85.37
2023-03-06T03:59:51.792Z,85.54
2023-03-06T04:02:21.594Z,85.48
2023-03-06T04:04:49.101Z,85.39
2023-03-06T04:07:18.988Z,85.54
2023-03-06T04:09:45.812Z,85.57
2023-03-06T04:12:12.521Z,85.46
2023-03-06T04:14:39.132Z,85.47
2023-03-06T04:17:05.730Z,85.94
2023-03-06T04:19:32.309Z,85.70
2023-03-06T04:21:59.202Z,85.87
2023-03-06T04:24:28.961Z,85.85
2023-03-06T04:26:55.696Z,85.97
2023-03-06T04:29:22.462Z,85.86
2023-03-06T04:31:48.956Z,86.03
2023-03-06T04:34:15.744Z,85.67
2023-03-06T04:36:45.275Z,85.86
2023-03-06T04:39:14.513Z,85.98
2023-03-06T04:41:42.277Z,86.12
2023-03-06T04:44:09.632Z,85.73
2023-03-06T04:46:36.441Z,86.10
2023-03-06T04:49:04.130Z,85.97
2023-03-06T04:51:31.212Z,85.92
2023-03-06T04:53:57.795Z,86.25
2023-03-06T04:56:24.532Z,85.94
2023-03-06T04:58:51.468Z,86.06
2023-03-06T05:01:18.857Z,85.96
2023-03-06T05:03:45.576Z,86.12
2023-03-06T05:06:12.478Z,86.24
2023-03-06T05:08:39.271Z,86.34
2023-03-06T05:11:06.070Z,86.79
2023-03-06T05:13:32.840Z,86.88
2023-03-06T05:16:05.548Z,86.71
2023-03-06T05:18:33.407Z,87.13
2023-03-06T05:21:06.790Z,87.37
2023-03-06T05:23:36.481Z,87.32
2023-03-06T05:26:09.793Z,87.52
2023-03-06T05:28:36.627Z,87.66
2023-03-06T05:31:03.623Z,87.90
2023-03-06T05:33:35.230Z,88.25
2023-03-06T05:36:02.477Z,88.60
2023-03-06T05:38:29.430Z,88.49
2023-03-06T05:40:56.242Z,88.99
2023-03-06T05:43:23.291Z,88.95
2023-03-06T05:45:53.182Z,89.04
2023-03-06T05:48:20.151Z,88.98
2023-03-06T05:50:46.826Z,89.47
2023-03-06T05:53:13.387Z,89.52
2023-03-06T05:55:40.137Z,89.66
2023-03-06T05:58:06.650Z,89.72
2023-03-06T06:00:34.225Z,89.69
2023-03-06T06:03:02.074Z,89.63
2023-03-06T06:05:28.858Z,89.67
2023-03-06T06:07:55.947Z,90.32
2023-03-06T06:10:22.780Z,90.11
2023-03-06T06:12:49.562Z,90.24
2023-03-06T06:15:16.436Z,90.31
2023-03-06T06:17:43.389Z,90.38
2023-03-06T06:20:11.282Z,90.32
2023-03-06T06:22:38.350Z,90.79
2023-03-06T06:25:06.552Z,90.49
2023-03-06T06:27:33.472Z,90.69
2023-03-06T06:30:00.050Z,90.98
2023-03-06T06:32:26.729Z,91.18
2023-03-06T06:34:56.381Z,91.18
2023-03-06T06:37:26.019Z,91.27
2023-03-06T06:39:52.930Z,91.32
2023-03-06T06:42:33.304Z,91.41
2023-03-06T06:45:05.390Z,91.42
2023-03-06T06:47:34.325Z,91.36
2023-03-06T06:50:04.214Z,91.51
2023-03-06T06:52:30.965Z,90.98
2023-03-06T06:54:57.730Z,91.47
2023-03-06T06:57:24.471Z,91.56
2023-03-06T06:59:53.821Z,91.97
2023-03-06T07:02:20.982Z,91.86
2023-03-06T07:05:02.395Z,91.83
2023-03-06T07:07:31.491Z,92.52
2023-03-06T07:09:58.328Z,92.13
2023-03-06T07:12:25.338Z,91.79
2023-03-06T07:14:51.932Z,91.63
2023-03-06T07:17:18.968Z,91.80
2023-03-06T07:19:45.912Z,91.83
2023-03-06T07:22:15.664Z,91.37
2023-03-06T07:24:42.693Z,91.57
2023-03-06T07:27:09.816Z,91.05
2023-03-06T07:29:36.970Z,90.94
2023-03-06T07:32:04.344Z,91.10
2023-03-06T07:34:31.666Z,91.11
2023-03-06T07:37:00.896Z,90.96
2023-03-06T07:39:28.218Z,91.02
2023-03-06T07:41:55.145Z,90.83
2023-03-06T07:44:22.176Z,91.03
2023-03-06T07:46:49.395Z,90.84
2023-03-06T07:49:17.063Z,90.61
2023-03-06T07:51:44.274Z,90.98
2023-03-06T07:54:11.179Z,91.03
2023-03-06T07:56:38.191Z,91.27
2023-03-06T07:59:05.097Z,91.54
2023-03-06T08:01:32.066Z,91.56
2023-03-06T08:03:59.375Z,91.21
2023-03-06T08:06:30.213Z,90.95
2023-03-06T08:08:57.638Z,90.57
2023-03-06T08:11:27.264Z,90.80
2023-03-06T08:13:55.264Z,91.00
2023-03-06T08:16:26.956Z,91.25
2023-03-06T08:18:54.357Z,91.46
2023-03-06T08:21:24.107Z,91.58
2023-03-06T08:23:51.484Z,91.71
2023-03-06T08:26:23.989Z,91.77
2023-03-06T08:28:52.595Z,91.93
2023-03-06T08:31:25.845Z,91.79
2023-03-06T08:33:53.668Z,92.07
2023-03-06T08:36:20.979Z,91.75
2023-03-06T08:38:48.206Z,91.38
2023-03-06T08:41:15.682Z,91.48
2023-03-06T08:43:42.462Z,91.34
2023-03-06T08:46:10.755Z,92.13
2023-03-06T08:48:37.670Z,91.90
2023-03-06T08:51:04.646Z,91.48
2023-03-06T08:53:42.656Z,91.81
2023-03-06T08:56:25.751Z,91.58
2023-03-06T08:58:53.699Z,91.42
2023-03-06T09:01:29.090Z,91.84
2023-03-06T09:03:57.542Z,91.49
2023-03-06T09:06:27.499Z,91.70
2023-03-06T09:08:55.388Z,92.00
2023-03-06T09:11:25.893Z,92.19
2023-03-06T09:13:53.963Z,92.00
2023-03-06T09:16:21.803Z,92.19
2023-03-06T09:18:50.891Z,92.13
2023-03-06T09:21:17.828Z,92.41
2023-03-06T09:23:44.496Z,92.66
2023-03-06T09:26:12.483Z,93.06
2023-03-06T09:28:40.589Z,93.35
2023-03-06T09:31:09.695Z,93.43
2023-03-06T09:33:36.784Z,93.68
2023-03-06T09:36:04.148Z,93.97
2023-03-06T09:38:31.155Z,93.87
2023-03-06T09:40:57.960Z,93.76
2023-03-06T09:43:30.227Z,93.89
2023-03-06T09:45:59.383Z,93.43
2023-03-06T09:48:42.435Z,93.66
2023-03-06T09:51:16.611Z,93.60
2023-03-06T09:54:12.018Z,93.20
2023-03-06T09:56:39.263Z,93.49
2023-03-06T09:59:13.854Z,93.56
2023-03-06T10:01:44.203Z,93.41
2023-03-06T10:04:37.808Z,93.49
2023-03-06T10:07:18.386Z,93.36
2023-03-06T10:09:57.939Z,92.79
2023-03-06T10:12:28.694Z,93.05
2023-03-06T10:15:24.043Z,93.03
2023-03-06T10:17:51.038Z,92.94
2023-03-06T10:20:28.681Z,92.93
2023-03-06T10:23:35.815Z,92.33
2023-03-06T10:26:11.059Z,91.91
2023-03-06T10:29:13.185Z,91.87
2023-03-06T10:31:49.749Z,91.89
2023-03-06T10:34:28.210Z,90.71
2023-03-06T10:36:55.360Z,91.21
2023-03-06T10:39:23.102Z,90.93
2023-03-06T10:41:50.017Z,90.80
2023-03-06T10:44:18.450Z,90.70
2023-03-06T10:46:47.707Z,90.95
2023-03-06T10:49:30.110Z,91.30
2023-03-06T10:52:03.068Z,90.61
2023-03-06T10:54:39.618Z,89.68
2023-03-06T10:57:20.253Z,90.29
2023-03-06T11:00:08.214Z,89.96
2023-03-06T11:02:37.309Z,89.48
2023-03-06T11:05:05.696Z,89.31
2023-03-06T11:07:36.210Z,88.41
2023-03-06T11:10:07.890Z,88.32
2023-03-06T11:12:39.914Z,87.40
2023-03-06T11:15:19.983Z,86.66
2023-03-06T11:18:05.825Z,85.69
2023-03-06T11:20:50.982Z,84.87
2023-03-06T11:23:26.944Z,84.52
2023-03-06T11:26:15.384Z,83.72
2023-03-06T11:29:12.078Z,84.07
2023-03-06T11:31:55.262Z,84.14
2023-03-06T11:34:42.809Z,84.61
2023-03-06T11:37:46.024Z,84.83
2023-03-06T11:40:24.177Z,84.81
2023-03-06T11:43:16.645Z,83.55
2023-03-06T11:45:48.700Z,84.09
2023-03-06T11:48:15.844Z,84.00
2023-03-06T11:50:52.555Z,84.05
2023-03-06T11:53:28.787Z,84.05
2023-03-06T11:56:31.682Z,83.12
2023-03-06T11:59:36.624Z,82.34
2023-03-06T12:02:19.119Z,81.39
2023-03-06T12:05:31.818Z,78.36
2023-03-06T12:08:36.267Z,77.24
2023-03-06T12:11:12.456Z,73.55
2023-03-06T12:13:49.954Z,72.17
2023-03-06T12:16:32.668Z,69.87
2023-03-06T12:19:17.148Z,68.41
2023-03-06T12:22:17.591Z,65.64
2023-03-06T12:24:56.278Z,65.58
2023-03-06T12:27:45.928Z,65.84
2023-03-06T12:30:21.616Z,62.37
2023-03-06T12:32:57.500Z,62.28
2023-03-06T12:35:46.252Z,58.49
2023-03-06T12:38:45.172Z,55.57
2023-03-06T12:41:36.887Z,52.31
2023-03-06T12:44:27.410Z,52.82
2023-03-06T12:50:47.719Z,48.83
2023-03-06T12:53:30.722Z,49.71
2023-03-06T12:56:00.760Z,51.78
2023-03-06T12:58:30.236Z,52.51
2023-03-06T13:01:44.550Z,52.65
2023-03-06T13:04:36.762Z,53.61
2023-03-06T13:07:19.739Z,54.23
2023-03-06T13:10:01.011Z,53.00
2023-03-06T13:12:39.095Z,48.75
2023-03-06T13:15:41.059Z,45.66
2023-03-06T13:18:42.801Z,40.48
2023-03-06T13:21:45.263Z,39.56
2023-03-06T13:24:24.585Z,39.36
2023-03-06T13:27:08.680Z,40.84
2023-03-06T13:29:49.014Z,39.13
2023-03-06T13:32:22.425Z,38.25
2023-03-06T13:34:50.052Z,36.71
2023-03-06T13:37:20.320Z,33.09
2023-03-06T13:40:10.077Z,34.19
2023-03-06T13:42:57.539Z,32.89
2023-03-06T13:45:28.627Z,32.03
2023-03-06T13:50:49.414Z,29.99
2023-03-06T13:53:34.439Z,29.65
2023-03-06T13:56:36.190Z,26.90
2023-03-06T13:59:15.974Z,26.25
2023-03-06T14:02:24.182Z,26.78
2023-03-06T14:04:54.865Z,25.35
2023-03-06T14:07:30.541Z,23.74
2023-03-06T14:10:18.422Z,24.69
2023-03-06T14:12:50.974Z,25.98
2023-03-06T14:15:22.670Z,27.07
2023-03-06T14:18:23.958Z,28.52
2023-03-06T14:20:54.465Z,30.30
2023-03-06T14:23:38.086Z,31.79
2023-03-06T14:26:25.665Z,33.01
2023-03-06T14:28:52.675Z,34.93
2023-03-06T14:31:22.397Z,36.10
2023-03-06T14:34:02.686Z,36.92
2023-03-06T14:36:47.869Z,36.70
2023-03-06T14:39:37.186Z,36.40
2023-03-06T14:42:16.940Z,34.51
2023-03-06T14:44:44.690Z,33.46
2023-03-06T14:47:26.392Z,32.57
2023-03-06T14:50:21.745Z,30.87
2023-03-06T14:52:57.566Z,30.62
2023-03-06T14:55:26.372Z,29.65
2023-03-06T14:58:07.921Z,29.15
2023-03-06T15:00:38.120Z,28.09
2023-03-06T15:03:16.517Z,27.81
2023-03-06T15:05:45.646Z,26.69
2023-03-06T15:08:17.450Z,26.38
2023-03-06T15:10:55.348Z,25.92
2023-03-06T15:13:25.179Z,24.10
2023-03-06T15:15:56.110Z,24.80
2023-03-06T15:18:35.179Z,24.22
2023-03-06T15:21:14.398Z,24.64
2023-03-06T15:23:44.700Z,24.94
2023-03-06T15:26:21.646Z,25.41
2023-03-06T15:29:09.055Z,26.86
2023-03-06T15:31:44.348Z,27.99
2023-03-06T15:34:11.059Z,28.35
2023-03-06T15:36:48.957Z,29.33
2023-03-06T15:39:30.888Z,30.45
2023-03-06T15:42:26.614Z,31.88
2023-03-06T15:44:55.639Z,32.15
2023-03-06T15:47:23.452Z,32.50
2023-03-06T15:49:57.466Z,32.46
2023-03-06T15:52:24.160Z,32.32
2023-03-06T15:54:50.861Z,32.07
2023-03-06T15:57:32.884Z,32.17
2023-03-06T16:00:03.812Z,32.63
2023-03-06T16:02:32.886Z,33.67
2023-03-06T16:05:02.874Z,34.72
2023-03-06T16:07:29.636Z,35.68
2023-03-06T16:09:56.510Z,37.01
2023-03-06T16:12:23.492Z,37.64
2023-03-06T16:14:50.081Z,38.70
2023-03-06T16:17:18.129Z,39.59
2023-03-06T16:19:45.258Z,40.21
2023-03-06T16:22:12.325Z,41.33
2023-03-06T16:24:40.726Z,42.27
2023-03-06T16:27:15.158Z,42.65
2023-03-06T16:29:44.471Z,43.73
2023-03-06T16:32:11.205Z,44.72
2023-03-06T16:34:37.934Z,45.27
2023-03-06T16:37:06.302Z,45.86
2023-03-06T16:39:33.599Z,46.50
2023-03-06T16:42:00.338Z,47.43
2023-03-06T16:44:27.014Z,47.96
2023-03-06T16:46:53.919Z,48.67
2023-03-06T16:49:23.815Z,49.26
2023-03-06T16:51:51.321Z,49.71
2023-03-06T16:54:18.216Z,50.09
2023-03-06T16:56:45.671Z,50.61
2023-03-06T16:59:12.835Z,51.15
2023-03-06T17:01:42.604Z,51.52
2023-03-06T17:04:09.381Z,52.19
2023-03-06T17:06:36.122Z,52.83
2023-03-06T17:09:02.945Z,53.66
2023-03-06T17:11:29.781Z,54.52
2023-03-06T17:13:56.392Z,55.08
2023-03-06T17:16:23.130Z,55.59
2023-03-06T17:18:50.706Z,55.77
2023-03-06T17:21:17.514Z,56.38
2023-03-06T17:23:44.928Z,56.53
2023-03-06T17:26:20.538Z,57.01
2023-03-06T17:28:47.506Z,57.60
2023-03-06T17:31:19.677Z,58.37
2023-03-06T17:33:46.593Z,59.13
2023-03-06T17:36:14.615Z,59.87
2023-03-06T17:38:42.849Z,60.13
2023-03-06T17:41:10.708Z,60.14
2023-03-06T17:43:39.110Z,60.22
2023-03-06T17:46:08.303Z,60.39
2023-03-06T17:48:35.311Z,61.31
2023-03-06T17:51:02.302Z,62.06
2023-03-06T17:53:29.265Z,63.71
2023-03-06T17:55:59.419Z,64.49
2023-03-06T17:58:27.171Z,65.38
2023-03-06T18:00:54.428Z,66.22
2023-03-06T18:03:21.798Z,66.99
2023-03-06T18:05:57.793Z,67.24
2023-03-06T18:08:24.651Z,67.37
2023-03-06T18:10:51.528Z,67.85
2023-03-06T18:13:18.439Z,68.30
2023-03-06T18:15:45.069Z,68.44
2023-03-06T18:18:11.579Z,68.72
2023-03-06T18:20:42.064Z,69.83
2023-03-06T18:23:09.022Z,70.43
2023-03-06T18:25:35.985Z,71.08
2023-03-06T18:28:02.464Z,71.49
2023-03-06T18:30:29.020Z,72.07
2023-03-06T18:32:55.862Z,72.29
2023-03-06T18:35:22.654Z,72.53
2023-03-06T18:37:49.204Z,73.21
2023-03-06T18:40:16.134Z,73.53
2023-03-06T18:42:42.969Z,74.28
2023-03-06T18:45:10.395Z,74.62
2023-03-06T18:47:37.001Z,74.78
2023-03-06T18:50:03.823Z,75.55
2023-03-06T18:52:30.509Z,75.59
2023-03-06T18:54:57.230Z,75.68
2023-03-06T18:57:24.238Z,76.12
2023-03-06T18:59:50.946Z,77.08
2023-03-06T19:02:17.620Z,77.16
2023-03-06T19:04:47.348Z,77.27
2023-03-06T19:07:15.212Z,77.03
2023-03-06T19:09:44.316Z,77.61
2023-03-06T19:12:11.523Z,77.80
2023-03-06T19:14:38.229Z,77.98
2023-03-06T19:17:04.978Z,78.11
2023-03-06T19:19:31.452Z,78.09
2023-03-06T19:21:59.304Z,78.06
2023-03-06T19:24:26.637Z,78.66
2023-03-06T19:26:53.393Z,78.48
2023-03-06T19:29:20.276Z,78.50
2023-03-06T19:31:52.135Z,78.57
2023-03-06T19:34:18.800Z,78.67
2023-03-06T19:36:45.473Z,79.20
2023-03-06T19:39:12.177Z,79.10
2023-03-06T19:41:39.125Z,79.15
2023-03-06T19:44:06.181Z,79.41
2023-03-06T19:46:34.615Z,79.47
2023-03-06T19:49:03.497Z,79.82
2023-03-06T19:51:30.443Z,80.01
2023-03-06T19:53:58.074Z,80.02
2023-03-06T19:56:27.490Z,80.31
2023-03-06T19:58:54.788Z,80.11
2023-03-06T20:01:23.136Z,80.37
2023-03-06T20:03:52.991Z,80.85
2023-03-06T20:06:20.181Z,80.97
2023-03-06T20:08:47.461Z,81.07
2023-03-06T20:11:24.290Z,81.31
2023-03-06T20:13:50.923Z,81.40
2023-03-06T20:16:18.545Z,81.78
2023-03-06T20:18:45.717Z,82.06
2023-03-06T20:21:13.318Z,82.02
2023-03-06T20:23:39.916Z,82.40
2023-03-06T20:26:11.889Z,82.38
2023-03-06T20:28:40.045Z,82.74
2023-03-06T20:31:20.854Z,82.98
2023-03-06T20:33:50.741Z,83.34
2023-03-06T20:36:23.232Z,83.67
2023-03-06T20:38:51.374Z,84.15
2023-03-06T20:41:24.589Z,84.68
2023-03-06T20:43:51.688Z,85.29
2023-03-06T20:46:20.030Z,84.90
2023-03-06T20:48:52.181Z,85.19
2023-03-06T20:51:24.360Z,85.17
2023-03-06T20:53:55.714Z,84.87
2023-03-06T20:56:27.326Z,85.81
2023-03-06T20:58:56.847Z,85.50
2023-03-06T21:01:26.101Z,85.86
2023-03-06T21:03:53.198Z,85.85
2023-03-06T21:06:20.838Z,86.03
2023-03-06T21:08:47.816Z,85.99
2023-03-06T21:11:15.129Z,85.91
2023-03-06T21:13:41.581Z,86.27
2023-03-06T21:16:11.540Z,86.44
2023-03-06T21:18:41.683Z,86.45
2023-03-06T21:21:20.408Z,86.33
2023-03-06T21:23:48.360Z,86.01
2023-03-06T21:26:22.744Z,85.83
2023-03-06T21:28:49.321Z,85.61
2023-03-06T21:31:18.270Z,85.71
2023-03-06T21:33:45.647Z,85.54
2023-03-06T21:36:12.832Z,85.32
2023-03-06T21:38:39.621Z,85.21
2023-03-06T21:41:20.141Z,85.46
2023-03-06T21:43:46.809Z,85.50
2023-03-06T21:46:13.883Z,85.54
2023-03-06T21:48:40.822Z,85.45
2023-03-06T21:51:10.487Z,85.45
2023-03-06T21:53:41.687Z,85.28
2023-03-06T21:56:11.979Z,85.12
2023-03-06T21:58:39.182Z,85.35
2023-03-06T22:01:16.873Z,85.41
2023-03-06T22:03:43.486Z,85.34
2023-03-06T22:06:17.834Z,85.46
2023-03-06T22:08:47.352Z,85.49
2023-03-06T22:11:16.561Z,85.62
2023-03-06T22:13:44.838Z,85.38
2023-03-06T22:16:12.133Z,85.21
2023-03-06T22:18:38.876Z,85.24
2023-03-06T22:21:14.271Z,85.51
2023-03-06T22:23:40.837Z,85.56
2023-03-06T22:26:10.390Z,85.54
2023-03-06T22:28:37.868Z,85.43
2023-03-06T22:31:13.291Z,85.37
2023-03-06T22:33:40.668Z,85.39
2023-03-06T22:36:12.359Z,85.43
2023-03-06T22:38:43.067Z,85.38
2023-03-06T22:41:10.943Z,85.15
2023-03-06T22:43:37.705Z,85.77
2023-03-06T22:46:07.241Z,85.77
2023-03-06T22:48:34.306Z,85.90
2023-03-06T22:51:05.916Z,85.80
2023-03-06T22:53:33.427Z,85.63
2023-03-06T22:56:01.279Z,85.46
2023-03-06T22:58:34.213Z,85.54
2023-03-06T23:01:21.102Z,85.37
2023-03-06T23:03:50.156Z,85.39
2023-03-06T23:06:34.158Z,85.07
2023-03-06T23:09:03.353Z,85.17
2023-03-06T23:11:30.440Z,85.10
2023-03-06T23:13:58.798Z,85.28
2023-03-06T23:16:25.569Z,85.05
2023-03-06T23:18:53.398Z,85.29
2023-03-06T23:21:24.560Z,84.93
2023-03-06T23:23:54.829Z,85.21
2023-03-06T23:26:24.828Z,84.71
2023-03-06T23:28:52.679Z,84.73
2023-03-06T23:31:22.966Z,84.51
2023-03-06T23:33:53.225Z,84.38
2023-03-06T23:36:19.840Z,84.01
2023-03-06T23:38:49.255Z,83.84
2023-03-06T23:41:18.098Z,83.47
2023-03-06T23:43:45.848Z,83.07
2023-03-06T23:46:13.505Z,82.97
2023-03-06T23:48:41.570Z,82.79
2023-03-06T23:51:19.154Z,82.47
2023-03-06T23:53:52.515Z,82.51
2023-03-06T23:56:19.362Z,82.76
2023-03-06T23:58:48.195Z,82.50
